createdAt,value
2024-02-27T00:01:51.331Z,4.47
2024-02-27T00:04:17.850Z,4.53
2024-02-27T00:06:45.261Z,4.55
2024-02-27T00:09:16.409Z,4.55
2024-02-27T00:11:44.852Z,4.57
2024-02-27T00:14:11.403Z,4.57
2024-02-27T00:16:38.184Z,4.53
2024-02-27T00:19:04.958Z,4.49
2024-02-27T00:21:31.455Z,4.43
2024-02-27T00:23:58.074Z,4.36
2024-02-27T00:26:24.454Z,4.33
2024-02-27T00:28:51.292Z,4.36
2024-02-27T00:31:17.723Z,4.33
2024-02-27T00:33:44.460Z,4.25
2024-02-27T00:36:10.907Z,4.19
2024-02-27T00:38:37.548Z,4.16
2024-02-27T00:41:04.205Z,4.18
2024-02-27T00:43:30.950Z,4.19
2024-02-27T00:45:57.287Z,4.24
2024-02-27T00:48:23.955Z,4.27
2024-02-27T00:50:50.587Z,4.27
2024-02-27T00:53:18.014Z,4.26
2024-02-27T00:55:44.665Z,4.30
2024-02-27T00:58:13.723Z,4.31
2024-02-27T01:00:40.486Z,4.36
2024-02-27T01:03:06.941Z,4.40
2024-02-27T01:05:33.527Z,4.41
2024-02-27T01:08:00.128Z,4.42
2024-02-27T01:10:26.783Z,4.43
2024-02-27T01:12:53.373Z,4.43
2024-02-27T01:15:19.673Z,4.43
2024-02-27T01:17:46.110Z,4.39
2024-02-27T01:20:12.450Z,4.39
2024-02-27T01:22:39.494Z,4.40
2024-02-27T01:25:05.960Z,4.38
2024-02-27T01:27:32.847Z,4.37
2024-02-27T01:29:59.244Z,4.33
2024-02-27T01:32:25.949Z,4.32
2024-02-27T01:34:52.448Z,4.31
2024-02-27T01:37:19.089Z,4.34
2024-02-27T01:39:45.811Z,4.36
2024-02-27T01:42:14.552Z,4.36
2024-02-27T01:44:47.007Z,4.38
2024-02-27T01:47:13.615Z,4.42
2024-02-27T01:49:40.291Z,4.44
2024-02-27T01:52:07.104Z,4.45
2024-02-27T01:54:34.014Z,4.49
2024-02-27T01:57:00.413Z,4.50
2024-02-27T01:59:26.934Z,4.45
2024-02-27T02:01:53.863Z,4.42
2024-02-27T02:04:20.708Z,4.44
2024-02-27T02:06:48.347Z,4.47
2024-02-27T02:09:14.658Z,4.48
2024-02-27T02:11:43.431Z,4.47
2024-02-27T02:14:09.911Z,4.47
2024-02-27T02:16:36.493Z,4.49
2024-02-27T02:19:03.308Z,4.52
2024-02-27T02:21:30.032Z,4.52
2024-02-27T02:24:00.487Z,4.54
2024-02-27T02:26:28.784Z,4.56
2024-02-27T02:28:55.295Z,4.56
2024-02-27T02:31:21.589Z,4.53
2024-02-27T02:33:48.210Z,4.52
2024-02-27T02:36:14.694Z,4.49
2024-02-27T02:38:41.318Z,4.48
2024-02-27T02:41:07.656Z,4.47
2024-02-27T02:43:34.023Z,4.44
2024-02-27T02:46:00.518Z,4.38
2024-02-27T02:48:26.943Z,4.33
2024-02-27T02:50:53.546Z,4.25
2024-02-27T02:53:20.100Z,4.23
2024-02-27T02:55:46.701Z,4.25
2024-02-27T02:58:13.246Z,4.28
2024-02-27T03:00:39.613Z,4.29
2024-02-27T03:03:06.253Z,4.30
2024-02-27T03:05:32.827Z,4.31
2024-02-27T03:07:59.334Z,4.32
2024-02-27T03:10:25.700Z,4.35
2024-02-27T03:12:52.211Z,4.30
2024-02-27T03:15:18.540Z,4.31
2024-02-27T03:17:45.612Z,4.36
2024-02-27T03:20:12.097Z,4.32
2024-02-27T03:22:38.858Z,4.32
2024-02-27T03:25:07.300Z,4.31
2024-02-27T03:27:33.954Z,4.30
2024-02-27T03:30:00.778Z,4.30
2024-02-27T03:32:27.135Z,4.30
2024-02-27T03:34:53.662Z,4.29
2024-02-27T03:37:20.408Z,4.31
2024-02-27T03:39:46.964Z,4.36
2024-02-27T03:42:13.524Z,4.38
2024-02-27T03:44:43.454Z,4.33
2024-02-27T03:47:10.166Z,4.36
2024-02-27T03:49:36.619Z,4.35
2024-02-27T03:52:03.176Z,4.36
2024-02-27T03:54:29.533Z,4.31
2024-02-27T03:56:55.884Z,4.30
2024-02-27T03:59:22.239Z,4.30
2024-02-27T04:01:52.264Z,4.28
2024-02-27T04:04:18.588Z,4.21
2024-02-27T04:06:45.018Z,4.22
2024-02-27T04:09:11.689Z,4.25
2024-02-27T04:11:38.041Z,4.23
2024-02-27T04:14:05.142Z,4.20
2024-02-27T04:16:31.656Z,4.17
2024-02-27T04:18:58.127Z,4.14
2024-02-27T04:21:24.538Z,4.13
2024-02-27T04:23:51.267Z,4.18
2024-02-27T04:26:17.593Z,4.20
2024-02-27T04:28:44.110Z,4.21
2024-02-27T04:31:10.658Z,4.19
2024-02-27T04:33:37.118Z,4.16
2024-02-27T04:36:03.832Z,4.14
2024-02-27T04:38:30.379Z,4.10
2024-02-27T04:40:57.095Z,4.08
2024-02-27T04:43:23.389Z,4.09
2024-02-27T04:45:50.015Z,4.10
2024-02-27T04:48:16.729Z,4.12
2024-02-27T04:50:43.231Z,4.10
2024-02-27T04:53:09.530Z,4.09
2024-02-27T04:55:36.044Z,4.04
2024-02-27T04:58:02.539Z,4.03
2024-02-27T05:00:29.102Z,4.01
2024-02-27T05:02:55.636Z,4.00
2024-02-27T05:05:22.279Z,3.96
2024-02-27T05:07:48.672Z,3.96
2024-02-27T05:10:15.365Z,3.96
2024-02-27T05:12:41.645Z,3.98
2024-02-27T05:15:08.251Z,3.98
2024-02-27T05:17:35.022Z,3.96
2024-02-27T05:20:01.362Z,3.97
2024-02-27T05:22:27.896Z,3.98
2024-02-27T05:24:54.216Z,4.00
2024-02-27T05:27:20.758Z,4.00
2024-02-27T05:29:47.539Z,4.01
2024-02-27T05:32:14.288Z,4.01
2024-02-27T05:34:40.667Z,3.98
2024-02-27T05:37:07.217Z,3.97
2024-02-27T05:39:33.563Z,3.96
2024-02-27T05:42:00.965Z,3.97
2024-02-27T05:44:27.730Z,4.00
2024-02-27T05:46:54.096Z,4.01
2024-02-27T05:49:20.842Z,3.96
2024-02-27T05:51:47.207Z,3.94
2024-02-27T05:54:13.788Z,3.92
2024-02-27T05:56:40.096Z,3.95
2024-02-27T05:59:06.679Z,3.96
2024-02-27T06:01:33.351Z,3.99
2024-02-27T06:03:59.708Z,4.01
2024-02-27T06:06:26.377Z,4.01
2024-02-27T06:08:52.705Z,3.98
2024-02-27T06:11:19.719Z,4.00
2024-02-27T06:13:46.054Z,4.02
2024-02-27T06:16:12.705Z,4.04
2024-02-27T06:18:43.132Z,4.08
2024-02-27T06:21:29.360Z,4.10
2024-02-27T06:23:55.791Z,4.09
2024-02-27T06:26:22.175Z,4.12
2024-02-27T06:28:49.259Z,4.13
2024-02-27T06:31:15.568Z,4.12
2024-02-27T06:33:42.266Z,4.12
2024-02-27T06:36:08.964Z,4.17
2024-02-27T06:38:35.357Z,4.23
2024-02-27T06:41:01.934Z,4.19
2024-02-27T06:43:28.224Z,4.17
2024-02-27T06:45:55.992Z,4.19
2024-02-27T06:48:22.424Z,4.22
2024-02-27T06:50:52.893Z,4.25
2024-02-27T06:53:19.228Z,4.29
2024-02-27T06:55:46.976Z,4.37
2024-02-27T06:58:13.460Z,4.44
2024-02-27T07:00:40.087Z,4.42
2024-02-27T07:03:06.696Z,4.47
2024-02-27T07:05:39.661Z,4.51
2024-02-27T07:08:11.432Z,4.54
2024-02-27T07:10:39.037Z,4.60
2024-02-27T07:13:10.539Z,4.65
2024-02-27T07:15:37.298Z,4.68
2024-02-27T07:18:05.120Z,4.70
2024-02-27T07:20:32.194Z,4.76
2024-02-27T07:23:00.825Z,4.79
2024-02-27T07:25:27.140Z,4.85
2024-02-27T07:27:53.560Z,4.89
2024-02-27T07:30:20.116Z,4.96
2024-02-27T07:32:46.514Z,5.01
2024-02-27T07:35:13.352Z,5.04
2024-02-27T07:37:40.358Z,5.08
2024-02-27T07:40:07.995Z,5.10
2024-02-27T07:42:34.992Z,5.14
2024-02-27T07:45:01.390Z,5.13
2024-02-27T07:47:27.967Z,5.11
2024-02-27T07:49:55.575Z,5.10
2024-02-27T07:52:22.272Z,5.08
2024-02-27T07:54:48.688Z,5.12
2024-02-27T07:57:15.149Z,5.17
2024-02-27T07:59:41.509Z,5.19
2024-02-27T08:02:08.088Z,5.15
2024-02-27T08:04:34.479Z,5.19
2024-02-27T08:07:01.012Z,5.16
2024-02-27T08:09:27.699Z,5.19
2024-02-27T08:11:54.496Z,5.15
2024-02-27T08:14:20.924Z,5.17
2024-02-27T08:16:47.388Z,5.23
2024-02-27T08:19:14.176Z,5.27
2024-02-27T08:21:40.582Z,5.27
2024-02-27T08:24:10.034Z,5.31
2024-02-27T08:26:36.473Z,5.37
2024-02-27T08:29:02.792Z,5.42
2024-02-27T08:31:29.356Z,5.38
2024-02-27T08:33:57.809Z,5.39
2024-02-27T08:36:27.299Z,5.43
2024-02-27T08:38:53.661Z,5.56
2024-02-27T08:41:22.807Z,5.68
2024-02-27T08:43:50.501Z,5.79
2024-02-27T08:46:18.828Z,5.84
2024-02-27T08:48:46.066Z,5.81
2024-02-27T08:51:12.558Z,5.81
2024-02-27T08:53:39.496Z,5.80
2024-02-27T08:56:07.728Z,5.69
2024-02-27T08:58:37.611Z,5.65
2024-02-27T09:01:04.900Z,5.62
2024-02-27T09:03:32.452Z,5.67
2024-02-27T09:05:59.096Z,5.61
2024-02-27T09:08:25.477Z,5.71
2024-02-27T09:10:51.981Z,5.78
2024-02-27T09:13:18.287Z,5.79
2024-02-27T09:15:44.815Z,5.86
2024-02-27T09:18:11.525Z,5.82
2024-02-27T09:20:38.660Z,5.80
2024-02-27T09:23:04.949Z,5.73
2024-02-27T09:25:31.224Z,5.70
2024-02-27T09:27:57.583Z,5.64
2024-02-27T09:30:24.272Z,5.58
2024-02-27T09:32:54.458Z,5.61
2024-02-27T09:35:20.868Z,5.69
2024-02-27T09:37:47.254Z,5.71
2024-02-27T09:40:13.847Z,5.70
2024-02-27T09:42:40.278Z,5.70
2024-02-27T09:45:08.340Z,5.72
2024-02-27T09:47:40.654Z,5.74
2024-02-27T09:50:09.083Z,5.80
2024-02-27T09:52:36.758Z,5.86
2024-02-27T09:55:03.317Z,5.95
2024-02-27T09:57:30.330Z,6.10
2024-02-27T09:59:57.180Z,6.07
2024-02-27T10:02:23.751Z,5.96
2024-02-27T10:04:50.786Z,5.91
2024-02-27T10:07:19.465Z,5.82
2024-02-27T10:09:46.642Z,5.68
2024-02-27T10:12:14.752Z,5.75
2024-02-27T10:14:41.540Z,5.87
2024-02-27T10:17:08.727Z,5.83
2024-02-27T10:19:36.422Z,5.83
2024-02-27T10:22:03.885Z,5.83
2024-02-27T10:24:30.514Z,5.81
2024-02-27T10:26:57.125Z,5.83
2024-02-27T10:29:24.075Z,5.95
2024-02-27T10:31:51.710Z,6.06
2024-02-27T10:34:19.291Z,6.09
2024-02-27T10:36:46.086Z,6.11
2024-02-27T10:39:12.595Z,6.19
2024-02-27T10:41:40.167Z,6.25
2024-02-27T10:44:14.284Z,6.23
2024-02-27T10:46:41.598Z,6.22
2024-02-27T10:49:10.001Z,6.21
2024-02-27T10:51:38.058Z,6.22
2024-02-27T10:54:05.461Z,6.17
2024-02-27T10:56:32.204Z,6.21
2024-02-27T10:58:58.541Z,6.13
2024-02-27T11:01:28.516Z,6.09
2024-02-27T11:03:55.369Z,6.09
2024-02-27T11:06:23.676Z,6.21
2024-02-27T11:08:57.056Z,6.29
2024-02-27T11:11:25.687Z,6.32
2024-02-27T11:13:53.359Z,6.26
2024-02-27T11:16:22.447Z,6.26
2024-02-27T11:18:53.188Z,6.37
2024-02-27T11:21:21.213Z,6.46
2024-02-27T11:23:47.538Z,6.44
2024-02-27T11:26:15.284Z,6.47
2024-02-27T11:28:42.769Z,6.57
2024-02-27T11:31:09.501Z,6.58
2024-02-27T11:33:49.033Z,6.65
2024-02-27T11:36:15.842Z,6.60
2024-02-27T11:38:45.095Z,6.52
2024-02-27T11:41:23.053Z,6.40
2024-02-27T11:43:50.470Z,6.37
2024-02-27T11:46:32.162Z,6.40
2024-02-27T11:49:00.082Z,6.37
2024-02-27T11:51:38.948Z,6.30
2024-02-27T11:54:12.086Z,6.30
2024-02-27T11:56:41.609Z,6.31
2024-02-27T11:59:12.686Z,6.25
2024-02-27T12:01:39.073Z,6.19
2024-02-27T12:04:10.649Z,6.20
2024-02-27T12:06:37.103Z,6.19
2024-02-27T12:09:03.871Z,6.10
2024-02-27T12:11:30.422Z,6.12
2024-02-27T12:13:57.210Z,6.11
2024-02-27T12:16:24.716Z,6.14
2024-02-27T12:18:51.655Z,6.19
2024-02-27T12:21:33.813Z,6.25
2024-02-27T12:24:09.675Z,6.16
2024-02-27T12:26:36.335Z,6.08
2024-02-27T12:29:02.961Z,6.09
2024-02-27T12:31:32.744Z,6.14
2024-02-27T12:34:03.726Z,6.27
2024-02-27T12:36:32.346Z,6.33
2024-02-27T12:38:59.361Z,6.37
2024-02-27T12:41:26.033Z,6.39
2024-02-27T12:43:52.876Z,6.43
2024-02-27T12:46:20.173Z,6.39
2024-02-27T12:48:48.772Z,6.41
2024-02-27T12:51:16.244Z,6.47
2024-02-27T12:53:43.302Z,6.31
2024-02-27T12:56:16.246Z,6.34
2024-02-27T12:58:42.693Z,6.41
2024-02-27T13:01:09.324Z,6.40
2024-02-27T13:03:37.045Z,6.33
2024-02-27T13:06:05.915Z,6.31
2024-02-27T13:08:32.710Z,6.31
2024-02-27T13:10:59.199Z,6.37
2024-02-27T13:13:30.752Z,6.31
2024-02-27T13:15:57.118Z,6.20
2024-02-27T13:18:23.655Z,6.09
2024-02-27T13:20:50.186Z,6.13
2024-02-27T13:23:24.578Z,6.24
2024-02-27T13:25:59.185Z,6.28
2024-02-27T13:28:28.252Z,6.38
2024-02-27T13:30:54.920Z,6.43
2024-02-27T13:33:21.485Z,6.34
2024-02-27T13:35:48.085Z,6.31
2024-02-27T13:38:14.379Z,6.13
2024-02-27T13:40:40.783Z,6.04
2024-02-27T13:43:07.402Z,6.04
2024-02-27T13:45:33.794Z,6.06
2024-02-27T13:48:00.474Z,6.11
2024-02-27T13:50:26.877Z,6.16
2024-02-27T13:52:53.386Z,6.28
2024-02-27T13:55:19.670Z,6.04
2024-02-27T13:57:46.271Z,5.80
2024-02-27T14:00:13.096Z,5.69
2024-02-27T14:02:39.720Z,5.77
2024-02-27T14:05:06.279Z,5.85
2024-02-27T14:07:32.621Z,5.82
2024-02-27T14:09:59.197Z,5.85
2024-02-27T14:12:25.861Z,5.84
2024-02-27T14:14:52.164Z,5.74
2024-02-27T14:17:18.671Z,5.76
2024-02-27T14:19:45.825Z,5.78
2024-02-27T14:22:12.268Z,5.81
2024-02-27T14:24:39.038Z,5.67
2024-02-27T14:27:05.792Z,5.65
2024-02-27T14:29:32.117Z,5.68
2024-02-27T14:31:58.579Z,5.75
2024-02-27T14:34:25.694Z,5.84
2024-02-27T14:36:52.493Z,5.85
2024-02-27T14:39:20.889Z,5.77
2024-02-27T14:41:47.330Z,5.72
2024-02-27T14:44:13.851Z,5.74
2024-02-27T14:46:41.400Z,5.78
2024-02-27T14:49:07.973Z,5.81
2024-02-27T14:51:34.388Z,5.85
2024-02-27T14:54:00.765Z,5.83
2024-02-27T14:56:27.063Z,5.82
2024-02-27T14:58:53.586Z,5.77
2024-02-27T15:01:20.072Z,5.73
2024-02-27T15:03:46.573Z,5.69
2024-02-27T15:06:13.897Z,5.67
2024-02-27T15:08:40.347Z,5.58
2024-02-27T15:11:08.940Z,5.52
2024-02-27T15:13:35.430Z,5.46
2024-02-27T15:16:02.072Z,5.42
2024-02-27T15:18:28.464Z,5.41
2024-02-27T15:21:00.057Z,5.40
2024-02-27T15:23:26.493Z,5.39
2024-02-27T15:25:54.456Z,5.42
2024-02-27T15:28:21.137Z,5.41
2024-02-27T15:30:47.537Z,5.41
2024-02-27T15:33:14.447Z,5.36
2024-02-27T15:35:43.529Z,5.33
2024-02-27T15:38:10.161Z,5.32
2024-02-27T15:40:36.483Z,5.28
2024-02-27T15:43:03.005Z,5.21
2024-02-27T15:45:29.589Z,5.17
2024-02-27T15:47:56.195Z,5.15
2024-02-27T15:50:22.601Z,5.08
2024-02-27T15:52:48.910Z,5.00
2024-02-27T15:55:18.195Z,4.97
2024-02-27T15:57:44.583Z,4.96
2024-02-27T16:00:11.774Z,4.97
2024-02-27T16:02:38.237Z,5.01
2024-02-27T16:05:07.002Z,5.02
2024-02-27T16:07:35.579Z,5.00
2024-02-27T16:10:08.001Z,5.02
2024-02-27T16:12:36.843Z,5.00
2024-02-27T16:15:05.964Z,4.98
2024-02-27T16:17:32.588Z,4.93
2024-02-27T16:19:59.104Z,4.88
2024-02-27T16:22:26.017Z,4.81
2024-02-27T16:24:52.415Z,4.80
2024-02-27T16:27:18.828Z,4.83
2024-02-27T16:29:45.705Z,4.84
2024-02-27T16:32:12.009Z,4.80
2024-02-27T16:34:38.692Z,4.78
2024-02-27T16:37:05.320Z,4.74
2024-02-27T16:39:31.868Z,4.73
2024-02-27T16:41:58.346Z,4.77
2024-02-27T16:44:24.713Z,4.75
2024-02-27T16:46:51.402Z,4.74
2024-02-27T16:49:17.770Z,4.71
2024-02-27T16:51:44.216Z,4.69
2024-02-27T16:54:10.617Z,4.60
2024-02-27T16:56:37.536Z,4.58
2024-02-27T16:59:03.840Z,4.60
2024-02-27T17:01:30.418Z,4.59
2024-02-27T17:03:56.891Z,4.56
2024-02-27T17:06:27.689Z,4.55
2024-02-27T17:08:54.370Z,4.52
2024-02-27T17:11:20.739Z,4.52
2024-02-27T17:13:47.361Z,4.49
2024-02-27T17:16:13.904Z,4.43
2024-02-27T17:18:40.395Z,4.44
2024-02-27T17:21:07.195Z,4.46
2024-02-27T17:23:33.536Z,4.44
2024-02-27T17:26:01.080Z,4.45
2024-02-27T17:28:27.686Z,4.45
2024-02-27T17:30:54.285Z,4.45
2024-02-27T17:33:22.451Z,4.39
2024-02-27T17:35:48.836Z,4.32
2024-02-27T17:38:15.444Z,4.29
2024-02-27T17:40:42.088Z,4.31
2024-02-27T17:43:08.702Z,4.32
2024-02-27T17:45:35.435Z,4.34
2024-02-27T17:48:02.038Z,4.24
2024-02-27T17:50:28.642Z,4.11
2024-02-27T17:52:55.184Z,4.26
2024-02-27T17:55:21.612Z,4.28
2024-02-27T17:57:48.178Z,4.22
2024-02-27T18:00:14.706Z,4.17
2024-02-27T18:02:41.704Z,4.10
2024-02-27T18:05:08.256Z,4.13
2024-02-27T18:07:34.850Z,4.16
2024-02-27T18:10:01.622Z,4.18
2024-02-27T18:12:29.195Z,4.21
2024-02-27T18:14:57.119Z,4.27
2024-02-27T18:17:24.373Z,4.31
2024-02-27T18:19:50.834Z,4.31
2024-02-27T18:22:17.554Z,4.28
2024-02-27T18:24:43.925Z,4.21
2024-02-27T18:27:10.487Z,4.19
2024-02-27T18:29:36.956Z,4.19
2024-02-27T18:32:03.820Z,4.20
2024-02-27T18:34:30.150Z,4.17
2024-02-27T18:36:56.811Z,4.23
2024-02-27T18:39:24.480Z,4.24
2024-02-27T18:41:50.854Z,4.24
2024-02-27T18:44:17.293Z,4.21
2024-02-27T18:46:43.576Z,4.13
2024-02-27T18:49:10.322Z,4.02
2024-02-27T18:51:41.484Z,3.86
2024-02-27T18:54:08.144Z,3.76
2024-02-27T18:56:34.842Z,3.76
2024-02-27T18:59:01.160Z,3.80
2024-02-27T19:01:27.652Z,3.88
2024-02-27T19:03:54.026Z,3.94
2024-02-27T19:06:20.745Z,3.99
2024-02-27T19:08:48.519Z,4.00
2024-02-27T19:11:15.063Z,4.00
2024-02-27T19:13:41.938Z,4.01
2024-02-27T19:16:08.569Z,4.04
2024-02-27T19:18:37.873Z,4.04
2024-02-27T19:21:04.676Z,4.07
2024-02-27T19:23:31.229Z,4.09
2024-02-27T19:25:58.622Z,4.12
2024-02-27T19:28:25.172Z,4.14
2024-02-27T19:30:51.532Z,4.18
2024-02-27T19:33:19.858Z,4.19
2024-02-27T19:35:46.233Z,4.20
2024-02-27T19:38:18.449Z,4.17
2024-02-27T19:40:45.858Z,4.18
2024-02-27T19:43:12.317Z,4.16
2024-02-27T19:45:40.605Z,4.09
2024-02-27T19:50:35.014Z,4.07
2024-02-27T19:53:01.554Z,4.03
2024-02-27T19:55:28.130Z,4.03
2024-02-27T19:57:54.461Z,4.05
2024-02-27T20:00:21.042Z,4.09
2024-02-27T20:02:47.427Z,4.10
2024-02-27T20:05:14.173Z,4.11
2024-02-27T20:07:40.692Z,4.04
2024-02-27T20:10:08.246Z,4.01
2024-02-27T20:12:36.433Z,4.01
2024-02-27T20:15:03.154Z,3.94
2024-02-27T20:17:29.472Z,3.90
2024-02-27T20:19:56.012Z,3.92
2024-02-27T20:22:22.339Z,3.88
2024-02-27T20:24:48.720Z,3.81
2024-02-27T20:27:15.286Z,3.84
2024-02-27T20:29:55.666Z,3.80
2024-02-27T20:32:25.751Z,3.76
2024-02-27T20:34:52.029Z,3.72
2024-02-27T20:37:18.692Z,3.63
2024-02-27T20:39:45.057Z,3.62
2024-02-27T20:42:11.597Z,3.63
2024-02-27T20:44:38.119Z,3.58
2024-02-27T20:47:04.603Z,3.55
2024-02-27T20:49:31.298Z,3.57
2024-02-27T20:51:57.833Z,3.56
2024-02-27T20:54:24.478Z,3.55
2024-02-27T20:56:50.905Z,3.58
2024-02-27T21:39:39.532Z,18.24
2024-02-27T21:42:06.111Z,15.51
2024-02-27T21:44:33.128Z,13.27
2024-02-27T21:46:59.860Z,11.33
2024-02-27T21:49:26.537Z,9.77
2024-02-27T21:51:59.495Z,8.58
2024-02-27T21:54:30.288Z,7.69
2024-02-27T21:56:57.016Z,7.06
2024-02-27T21:59:23.680Z,6.47
2024-02-27T22:01:50.204Z,6.04
2024-02-27T22:04:16.943Z,5.59
2024-02-27T22:06:43.557Z,5.23
2024-02-27T22:09:11.232Z,4.88
2024-02-27T22:11:38.089Z,4.67
2024-02-27T22:14:04.796Z,4.55
2024-02-27T22:16:31.444Z,4.48
2024-02-27T22:18:58.175Z,4.40
2024-02-27T22:21:24.699Z,4.31
2024-02-27T22:23:51.114Z,4.21
2024-02-27T22:26:17.638Z,4.15
2024-02-27T22:28:44.029Z,4.12
2024-02-27T22:31:10.679Z,4.10
2024-02-27T22:33:37.147Z,4.08
2024-02-27T22:36:03.836Z,4.01
